Alioth — T8A2552 — position and weather

sailwx.info

Track history (hours):
 
Tides and Currents Weather Stations Pressure Air Temp Water Temp Dewpoint Dewpoint Depression Visibility Wind Speed Wind Dir Waves Ship Positions

Alioth

Last reported at 2017-Dec-12 18:51 UTC. Time now 2017-Dec-18 03:22 UTC.
Position N 45°25' E 036°41'.

Length 108 m; draft 2.5 m.

Type: Cargo ship. MMSI: 511469000.

Date/timePositionNaut miles runAvg speedWind from/ knotsBaromVisibWave heightAir tempDewpointWater temp
2017-Dec-12 18:51N 45°25' E 036°41'3 8.4
2017-Dec-12 18:30N 45°22' E 036°40'3 6.9
2017-Dec-12 18:01N 45°20' E 036°37'4 8.6
2017-Dec-12 17:30N 45°19' E 036°31'5 0.1
2017-Dec-11 08:55N 45°14' E 036°29'0 0.0
2017-Dec-11 08:25N 45°14' E 036°29'0 0.0
2017-Dec-11 07:56N 45°14' E 036°29'0 0.0
2017-Dec-10 14:31N 45°14' E 036°29'0 0.0
2017-Dec-10 12:07N 45°14' E 036°29'0 0.0
2017-Dec-10 11:49N 45°14' E 036°29'0 0.0
2017-Dec-10 08:40N 45°14' E 036°29'0 0.4
2017-Dec-10 08:29N 45°14' E 036°29'0 0.2
2017-Dec-10 07:52N 45°14' E 036°29'0 0.0
2017-Dec-10 07:28N 45°14' E 036°29'0 0.0
2017-Dec-10 06:54N 45°14' E 036°29'0 0.0
2017-Dec-10 06:16N 45°14' E 036°29'0 0.0
2017-Dec-10 05:25N 45°14' E 036°29'0 0.0
2017-Dec-10 04:59N 45°14' E 036°29'0 0.0
2017-Dec-10 04:28N 45°14' E 036°29'0 0.0
2017-Dec-10 03:58N 45°14' E 036°29'0 0.0
2017-Dec-10 03:28N 45°14' E 036°29'0 0.0
2017-Dec-10 02:57N 45°14' E 036°29'0 0.0
2017-Dec-10 02:28N 45°14' E 036°29'0 0.0
2017-Dec-10 01:40N 45°14' E 036°29'0 0.0
2017-Dec-10 01:29N 45°14' E 036°29'0 0.0
2017-Dec-10 00:52N 45°14' E 036°29'0 0.0
2017-Dec-09 23:46N 45°14' E 036°29'0 0.0
2017-Dec-09 18:28N 45°14' E 036°29'0 0.0
2017-Dec-09 17:55N 45°14' E 036°29'0 0.3
2017-Dec-09 17:25N 45°14' E 036°29'  
Track history (hours):
 
Tides and Currents Weather Stations Pressure Air Temp Water Temp Dewpoint Dewpoint Depression Visibility Wind Speed Wind Dir Waves Ship Positions

Alioth

Last reported at 2017-Dec-12 18:51 UTC. Time now 2017-Dec-18 03:22 UTC.
Position N 45°25' E 036°41'.

Length 108 m; draft 2.5 m.

Type: Cargo ship. MMSI: 511469000.

Date/timePositionNaut miles runAvg speedWind from/ knotsBaromVisibWave heightAir tempDewpointWater temp
2017-Dec-12 18:51N 45°25' E 036°41'3 8.4
2017-Dec-12 18:30N 45°22' E 036°40'3 6.9
2017-Dec-12 18:01N 45°20' E 036°37'4 8.6
2017-Dec-12 17:30N 45°19' E 036°31'5 0.1
2017-Dec-11 08:55N 45°14' E 036°29'0 0.0
2017-Dec-11 08:25N 45°14' E 036°29'0 0.0
2017-Dec-11 07:56N 45°14' E 036°29'0 0.0
2017-Dec-10 14:31N 45°14' E 036°29'0 0.0
2017-Dec-10 12:07N 45°14' E 036°29'0 0.0
2017-Dec-10 11:49N 45°14' E 036°29'0 0.0
2017-Dec-10 08:40N 45°14' E 036°29'0 0.4
2017-Dec-10 08:29N 45°14' E 036°29'0 0.2
2017-Dec-10 07:52N 45°14' E 036°29'0 0.0
2017-Dec-10 07:28N 45°14' E 036°29'0 0.0
2017-Dec-10 06:54N 45°14' E 036°29'0 0.0
2017-Dec-10 06:16N 45°14' E 036°29'0 0.0
2017-Dec-10 05:25N 45°14' E 036°29'0 0.0
2017-Dec-10 04:59N 45°14' E 036°29'0 0.0
2017-Dec-10 04:28N 45°14' E 036°29'0 0.0
2017-Dec-10 03:58N 45°14' E 036°29'0 0.0
2017-Dec-10 03:28N 45°14' E 036°29'0 0.0
2017-Dec-10 02:57N 45°14' E 036°29'0 0.0
2017-Dec-10 02:28N 45°14' E 036°29'0 0.0
2017-Dec-10 01:40N 45°14' E 036°29'0 0.0
2017-Dec-10 01:29N 45°14' E 036°29'0 0.0
2017-Dec-10 00:52N 45°14' E 036°29'0 0.0
2017-Dec-09 23:46N 45°14' E 036°29'0 0.0
2017-Dec-09 18:28N 45°14' E 036°29'0 0.0
2017-Dec-09 17:55N 45°14' E 036°29'0 0.3
2017-Dec-09 17:25N 45°14' E 036°29'  

Dump ship's entire track history